Time;durP1;ratioP1;P1;durP2;ratioP2;P2;SDS_P1;SDS_P2;PMS_P1;PMS_P2;Temp;Humidity;BMP_temperature;BMP_pressure;BME280_temperature;BME280_humidity;BME280_pressure;Samples;Min_cycle;Max_cycle;Signal;HPM_P1;HPM_P2
2020/12/08 00:00:22;;;;;;;53.07;22.30;;;;;;;12.38;50.78;100030.94;4977598;28;20046;-59
2020/12/08 00:02:48;;;;;;;50.60;20.38;;;;;;;12.42;50.40;100035.59;5004021;28;20537;-60
2020/12/08 00:05:15;;;;;;;47.05;21.50;;;;;;;12.63;50.82;100044.19;4995112;28;20038;-62
2020/12/08 00:07:41;;;;;;;46.13;22.83;;;;;;;12.62;50.88;100037.19;4998454;28;20038;-60
2020/12/08 00:10:07;;;;;;;44.35;21.30;;;;;;;12.58;51.68;100047.56;5014725;28;20034;-61
2020/12/08 00:12:32;;;;;;;52.70;20.50;;;;;;;12.87;51.18;100047.78;5014441;28;20034;-61
2020/12/08 00:14:57;;;;;;;46.63;20.47;;;;;;;12.95;50.47;100043.94;5013789;28;20485;-61
2020/12/08 00:17:23;;;;;;;40.67;19.07;;;;;;;13.19;50.17;100052.81;5014720;28;20054;-60
2020/12/08 00:19:49;;;;;;;38.60;17.47;;;;;;;13.19;50.25;100052.03;4996356;28;20047;-61
2020/12/08 00:22:15;;;;;;;38.95;18.33;;;;;;;13.13;50.63;100034.13;5014542;28;20341;-60
2020/12/08 00:24:40;;;;;;;38.38;17.92;;;;;;;13.25;50.47;100044.88;4993214;28;20034;-59
2020/12/08 00:27:09;;;;;;;37.97;18.75;;;;;;;13.20;50.29;100037.56;4994917;28;20433;-59
2020/12/08 00:29:36;;;;;;;38.05;18.90;;;;;;;13.38;50.58;100044.66;4994418;28;20544;-57
2020/12/08 00:32:08;;;;;;;38.97;18.15;;;;;;;13.05;51.27;100052.22;4994904;28;20054;-60
2020/12/08 00:34:34;;;;;;;37.95;19.08;;;;;;;13.01;51.72;100052.91;4977440;28;20394;-60
2020/12/08 00:37:00;;;;;;;;;;;;;;;13.12;50.95;100053.97;4977541;28;20030;-60
2020/12/08 00:39:25;;;;;;;44.03;18.10;;;;;;;12.94;52.05;100049.53;4994737;28;20381;-59
2020/12/08 00:41:51;;;;;;;35.60;17.43;;;;;;;12.80;52.50;100055.09;4993863;28;20038;-61
2020/12/08 00:44:16;;;;;;;37.60;18.60;;;;;;;12.83;52.72;100053.81;4994608;28;20038;-60
2020/12/08 00:46:47;;;;;;;33.83;18.13;;;;;;;12.92;52.35;100052.44;4993898;28;20042;-61
2020/12/08 00:49:13;;;;;;;36.58;17.27;;;;;;;12.92;52.48;100063.19;4977231;28;20284;-60
2020/12/08 00:51:38;;;;;;;38.57;18.97;;;;;;;12.92;52.87;100068.56;4993832;28;20665;-58
2020/12/08 00:54:04;;;;;;;37.88;17.33;;;;;;;12.91;53.04;100066.88;4976994;28;20275;-60
2020/12/08 00:56:31;;;;;;;37.17;19.60;;;;;;;12.89;53.15;100061.78;4977127;28;20125;-60
2020/12/08 00:59:00;;;;;;;41.20;18.52;;;;;;;13.15;53.06;100053.53;4992433;28;20093;-60
2020/12/08 01:01:26;;;;;;;35.53;19.15;;;;;;;12.82;53.91;100044.13;4976791;28;20088;-60
2020/12/08 01:03:51;;;;;;;38.58;18.33;;;;;;;12.90;53.63;100058.03;4976156;28;20043;-60
2020/12/08 01:06:22;;;;;;;38.30;19.13;;;;;;;13.27;52.34;100048.19;4976879;28;20042;-60
2020/12/08 01:08:48;;;;;;;34.22;17.60;;;;;;;13.26;51.91;100050.03;4975995;28;20080;-60
2020/12/08 01:11:15;;;;;;;34.70;16.80;;;;;;;13.20;52.38;100056.34;4992753;28;20038;-61
2020/12/08 01:13:40;;;;;;;36.70;18.58;;;;;;;13.07;53.58;100053.84;4993423;28;20089;-60
2020/12/08 01:16:13;;;;;;;33.58;16.30;;;;;;;12.96;53.30;100056.31;4992719;28;20097;-61
2020/12/08 01:18:39;;;;;;;34.90;16.67;;;;;;;12.57;55.07;100055.84;4993472;28;20050;-58
2020/12/08 01:21:04;;;;;;;33.92;17.05;;;;;;;12.77;55.50;100055.53;4976077;28;20397;-60
2020/12/08 01:23:31;;;;;;;34.50;16.15;;;;;;;12.99;53.60;100042.41;4993888;28;20038;-60
2020/12/08 01:25:59;;;;;;;41.38;17.30;;;;;;;13.24;53.17;100044.09;4959836;28;20054;-60
2020/12/08 01:28:24;;;;;;;33.83;17.40;;;;;;;13.05;53.25;100044.19;4976378;28;20034;-60
2020/12/08 01:30:52;;;;;;;32.15;16.08;;;;;;;13.28;52.57;100052.50;4975562;28;20463;-61
2020/12/08 01:33:18;;;;;;;34.08;17.65;;;;;;;13.10;52.85;100059.59;4993755;28;20054;-60
2020/12/08 01:35:44;;;;;;;37.17;17.03;;;;;;;13.13;53.20;100048.38;4993089;28;20462;-60
2020/12/08 01:38:10;;;;;;;32.17;17.15;;;;;;;12.95;54.00;100051.16;4976201;28;20030;-60
2020/12/08 01:40:36;;;;;;;32.83;16.45;;;;;;;12.97;54.20;100049.06;4993339;28;20064;-59
2020/12/08 01:43:02;;;;;;;34.03;16.13;;;;;;;13.12;54.33;100053.97;4975203;28;20034;-60
2020/12/08 01:45:29;;;;;;;35.83;16.25;;;;;;;13.18;53.88;100053.06;4976168;28;20287;-60
2020/12/08 01:47:56;;;;;;;34.20;16.45;;;;;;;13.16;53.70;100053.28;4975324;28;20445;-60
2020/12/08 01:50:22;;;;;;;34.92;17.13;;;;;;;13.13;54.45;100059.13;4983113;28;20079;-60
2020/12/08 01:52:49;;;;;;;36.13;16.92;;;;;;;13.11;53.58;100055.03;4983973;28;20057;-60
2020/12/08 01:55:15;;;;;;;30.33;15.35;;;;;;;13.06;54.32;100053.06;4984793;28;20045;-61
2020/12/08 01:57:45;;;;;;;27.70;15.70;;;;;;;13.30;52.73;100059.25;4982930;28;20471;-60
2020/12/08 02:00:13;;;;;;;27.73;15.00;;;;;;;13.32;52.19;100051.78;4992511;28;20478;-60
2020/12/08 02:02:41;;;;;;;31.30;15.65;;;;;;;13.03;53.62;100061.56;5001566;28;20060;-58
2020/12/08 02:05:15;;;;;;;29.08;15.10;;;;;;;13.14;53.45;100060.75;4984865;28;20045;-60
2020/12/08 02:07:43;;;;;;;27.48;15.30;;;;;;;13.03;53.58;100057.00;4983134;28;20097;-59
2020/12/08 02:10:09;;;;;;;32.00;16.40;;;;;;;13.10;53.22;100059.59;4983086;28;20034;-60
2020/12/08 02:12:34;;;;;;;28.00;14.53;;;;;;;13.37;52.09;100055.63;4984910;28;20397;-60
2020/12/08 02:15:00;;;;;;;28.63;16.40;;;;;;;13.09;52.05;100055.28;4982498;28;20370;-60
2020/12/08 02:17:26;;;;;;;31.77;15.95;;;;;;;13.03;52.48;100057.00;4983126;28;20291;-59
2020/12/08 02:19:56;;;;;;;29.70;14.53;;;;;;;13.16;51.63;100064.03;4984401;28;20038;-60
2020/12/08 02:22:22;;;;;;;29.63;15.23;;;;;;;12.95;51.53;100064.56;4983170;28;20481;-60
2020/12/08 02:24:48;;;;;;;29.60;15.57;;;;;;;12.95;51.60;100059.22;4994466;28;20033;-59
2020/12/08 02:27:14;;;;;;;31.85;15.85;;;;;;;12.96;51.49;100059.00;5012689;28;20061;-59
2020/12/08 02:29:40;;;;;;;27.88;15.32;;;;;;;12.83;51.10;100064.53;4994605;28;20046;-58
2020/12/08 02:32:06;;;;;;;30.27;14.98;;;;;;;12.77;51.21;100067.09;5012499;28;20470;-61
2020/12/08 02:34:31;;;;;;;32.53;16.17;;;;;;;13.01;50.12;100060.97;4995142;28;20038;-60
2020/12/08 02:36:58;;;;;;;32.73;14.97;;;;;;;12.97;50.33;100057.09;5011913;28;20041;-60
2020/12/08 02:39:25;;;;;;;;;;;;;;;13.00;50.40;100053.97;4994992;28;20056;-60
2020/12/08 02:41:51;;;;;;;32.03;16.08;;;;;;;12.83;50.74;100056.50;4994317;28;19940;-60
2020/12/08 02:44:17;;;;;;;35.92;17.70;;;;;;;13.04;49.36;100061.34;4995034;28;20042;-60
2020/12/08 02:46:48;;;;;;;36.63;18.23;;;;;;;12.82;50.15;100060.22;4994378;28;20124;-60
2020/12/08 02:49:15;;;;;;;32.78;16.48;;;;;;;12.88;50.16;100060.13;4994692;28;20073;-60
2020/12/08 02:51:41;;;;;;;38.50;17.42;;;;;;;12.81;50.89;100058.59;4994626;28;20042;-58
2020/12/08 02:54:07;;;;;;;33.70;15.57;;;;;;;12.74;50.13;100070.25;4995062;28;20046;-60
2020/12/08 02:56:33;;;;;;;37.57;17.60;;;;;;;12.73;50.38;100060.56;5027222;28;20037;-59
2020/12/08 02:59:06;;;;;;;37.47;16.45;;;;;;;12.42;50.77;100069.66;5011800;28;20117;-60
2020/12/08 03:01:34;;;;;;;36.88;17.77;;;;;;;12.53;51.26;100060.03;5027397;28;20034;-60
2020/12/08 03:04:00;;;;;;;36.47;19.02;;;;;;;12.59;51.04;100059.13;5026574;28;20041;-60
2020/12/08 03:06:28;;;;;;;37.70;18.73;;;;;;;12.59;51.14;100075.19;5027421;28;20100;-60
2020/12/08 03:08:57;;;;;;;37.22;18.45;;;;;;;12.50;52.02;100076.56;4993860;28;20129;-60
2020/12/08 03:11:32;;;;;;;37.35;17.92;;;;;;;12.66;50.85;100069.75;4994838;28;20077;-60
2020/12/08 03:13:59;;;;;;;35.45;17.45;;;;;;;12.75;49.67;100063.84;4993978;28;20084;-60
2020/12/08 03:16:26;;;;;;;34.33;17.85;;;;;;;12.64;50.21;100056.56;5026944;28;20049;-59
2020/12/08 03:18:53;;;;;;;35.25;17.08;;;;;;;12.59;50.34;100061.78;5026690;28;20073;-59
2020/12/08 03:21:20;;;;;;;30.77;15.70;;;;;;;12.56;50.64;100063.06;4994489;28;20038;-60
2020/12/08 03:23:46;;;;;;;36.92;16.45;;;;;;;12.54;50.51;100058.97;4993666;28;20045;-59
2020/12/08 03:26:22;;;;;;;33.10;16.33;;;;;;;12.54;50.54;100061.66;5026985;28;20034;-60
2020/12/08 03:28:49;;;;;;;32.35;16.75;;;;;;;12.42;50.77;100064.31;4993523;28;20046;-59
2020/12/08 03:31:15;;;;;;;35.40;17.98;;;;;;;12.35;51.03;100069.75;5027343;28;20038;-58
2020/12/08 03:33:42;;;;;;;33.10;18.17;;;;;;;12.50;50.23;100065.84;4994534;28;20107;-60
2020/12/08 03:36:12;;;;;;;37.78;17.55;;;;;;;12.57;49.59;100063.88;5029384;28;20480;-60
2020/12/08 03:38:37;;;;;;;34.45;16.58;;;;;;;12.41;49.75;100074.19;4997796;28;20050;-60
2020/12/08 03:41:03;;;;;;;38.22;17.45;;;;;;;12.54;49.88;100067.84;4997231;28;20029;-60
2020/12/08 03:43:32;;;;;;;34.83;16.63;;;;;;;12.73;48.90;100068.63;4997651;28;20042;-61
2020/12/08 03:45:59;;;;;;;37.60;17.23;;;;;;;12.82;48.05;100069.13;5014745;28;20038;-61
2020/12/08 03:48:25;;;;;;;39.00;17.60;;;;;;;12.73;47.91;100070.47;4997511;28;20293;-60
2020/12/08 03:50:52;;;;;;;39.85;16.38;;;;;;;12.46;49.16;100071.69;4996918;28;20046;-60
2020/12/08 03:53:23;;;;;;;34.53;18.33;;;;;;;12.55;48.56;100071.34;4997807;28;20049;-59
2020/12/08 03:55:57;;;;;;;43.92;18.05;;;;;;;12.25;49.05;100074.84;5029832;28;20038;-61
2020/12/08 03:58:23;;;;;;;40.00;18.80;;;;;;;11.79;51.23;100066.25;5014920;28;20038;-60
2020/12/08 04:00:49;;;;;;;37.17;17.17;;;;;;;11.90;51.64;100074.34;4996753;28;20440;-59
2020/12/08 04:03:15;;;;;;;37.25;17.92;;;;;;;11.98;51.20;100080.44;5030271;28;20049;-60
2020/12/08 04:05:45;;;;;;;38.15;17.80;;;;;;;11.84;51.71;100075.25;4980569;28;20038;-59
2020/12/08 04:08:11;;;;;;;35.83;18.60;;;;;;;11.75;52.50;100072.03;5000846;28;20049;-60
2020/12/08 04:10:43;;;;;;;42.35;18.30;;;;;;;11.84;51.05;100063.72;5013417;28;20038;-60
2020/12/08 04:13:09;;;;;;;43.90;19.38;;;;;;;11.91;51.88;100075.19;4996398;28;20042;-61
2020/12/08 04:15:37;;;;;;;40.67;18.42;;;;;;;11.92;51.37;100082.19;5013356;28;20077;-60
2020/12/08 04:18:03;;;;;;;34.23;17.80;;;;;;;11.79;51.93;100091.19;4996214;28;20127;-61
2020/12/08 04:20:29;;;;;;;39.65;18.52;;;;;;;11.85;52.13;100092.97;5008711;28;20070;-61
2020/12/08 04:22:55;;;;;;;34.70;18.05;;;;;;;11.79;52.29;100095.72;4993326;28;20520;-60
2020/12/08 04:25:22;;;;;;;36.97;18.20;;;;;;;11.69;51.94;100090.84;4994137;28;20030;-60
2020/12/08 04:27:48;;;;;;;36.95;17.80;;;;;;;11.54;53.37;100092.03;4993276;28;20054;-59
2020/12/08 04:30:14;;;;;;;38.87;17.63;;;;;;;11.73;52.67;100098.25;4993581;28;20078;-60
2020/12/08 04:32:44;;;;;;;35.90;17.58;;;;;;;11.87;50.55;100098.91;4977398;28;20133;-62
2020/12/08 04:35:09;;;;;;;34.00;16.77;;;;;;;11.57;52.50;100101.47;4994206;28;20110;-61
2020/12/08 04:37:35;;;;;;;38.63;17.77;;;;;;;11.25;54.05;100093.53;4994777;28;20121;-60
2020/12/08 04:40:00;;;;;;;43.67;17.87;;;;;;;10.98;55.66;100099.06;4993883;28;20375;-59
2020/12/08 04:42:26;;;;;;;31.40;17.40;;;;;;;11.00;55.46;100100.47;4993456;28;20394;-59
2020/12/08 04:44:54;;;;;;;35.72;17.83;;;;;;;10.75;57.02;100090.56;4993878;28;20045;-59
2020/12/08 04:47:24;;;;;;;36.30;16.95;;;;;;;10.84;57.40;100106.34;5004483;28;20034;-60
2020/12/08 04:49:52;;;;;;;36.75;18.02;;;;;;;10.83;55.45;100099.34;5013425;28;20045;-59
2020/12/08 04:52:18;;;;;;;37.60;17.88;;;;;;;10.74;55.67;100102.28;5013279;28;20034;-60
2020/12/08 04:54:43;;;;;;;33.20;17.13;;;;;;;10.66;56.31;100107.91;4994458;28;20044;-60
2020/12/08 04:57:09;;;;;;;32.33;17.30;;;;;;;10.74;54.76;100104.16;4976267;28;20030;-61
2020/12/08 04:59:38;;;;;;;34.78;16.48;;;;;;;10.90;54.78;100105.50;4994135;28;20041;-60
2020/12/08 05:02:04;;;;;;;36.03;17.15;;;;;;;10.96;53.82;100112.66;4993657;28;20038;-60
2020/12/08 05:04:30;;;;;;;35.15;17.58;;;;;;;11.39;50.79;100095.03;4976935;28;20046;-60
2020/12/08 05:07:05;;;;;;;38.57;16.43;;;;;;;11.22;53.13;100105.47;4993533;28;20034;-60
2020/12/08 05:09:32;;;;;;;36.70;18.08;;;;;;;11.11;52.72;100106.19;4993823;28;20045;-61
2020/12/08 05:12:00;;;;;;;34.25;15.93;;;;;;;11.36;50.81;100100.03;4993247;28;20045;-61
2020/12/08 05:14:26;;;;;;;37.50;17.50;;;;;;;11.11;51.60;100104.31;4994074;28;20073;-61
2020/12/08 05:17:02;;;;;;;36.05;18.27;;;;;;;10.90;51.77;100103.63;4972375;28;20071;-60
2020/12/08 05:19:28;;;;;;;39.60;18.75;;;;;;;10.86;52.10;100098.94;4974582;28;20118;-60
2020/12/08 05:21:54;;;;;;;36.13;17.23;;;;;;;10.89;51.07;100098.50;4973980;28;20121;-60
2020/12/08 05:24:30;;;;;;;32.37;16.23;;;;;;;10.85;51.10;100110.69;4974462;28;20280;-61
2020/12/08 05:27:01;;;;;;;30.17;15.38;;;;;;;10.94;51.30;100090.66;4972766;28;20039;-60
2020/12/08 05:29:28;;;;;;;39.97;18.13;;;;;;;10.45;55.03;100107.16;4974294;28;20039;-60
2020/12/08 05:31:54;;;;;;;41.92;19.15;;;;;;;10.52;55.78;100096.44;4973367;28;20046;-60
2020/12/08 05:34:22;;;;;;;38.72;19.45;;;;;;;10.90;53.16;100108.16;4974317;28;20073;-61
2020/12/08 05:36:50;;;;;;;40.65;17.17;;;;;;;10.94;53.03;100100.50;4980591;28;20483;-60
2020/12/08 05:39:20;;;;;;;37.42;19.10;;;;;;;10.80;52.34;100113.16;4993377;28;20046;-61
2020/12/08 05:41:47;;;;;;;34.75;17.60;;;;;;;10.59;52.85;100107.94;4993622;28;20073;-60
2020/12/08 05:44:23;;;;;;;36.30;18.20;;;;;;;10.75;52.21;100111.94;4992949;28;20038;-60
2020/12/08 05:46:49;;;;;;;34.92;16.52;;;;;;;10.89;51.70;100103.84;4992343;28;20046;-60
2020/12/08 05:49:15;;;;;;;33.22;16.23;;;;;;;10.83;52.50;100112.72;4992844;28;20038;-61
2020/12/08 05:51:42;;;;;;;35.60;16.93;;;;;;;10.81;52.98;100109.44;4993187;28;20103;-60
2020/12/08 05:54:20;;;;;;;37.38;17.33;;;;;;;11.00;51.73;100118.41;4992870;28;20031;-61
2020/12/08 05:56:47;;;;;;;35.03;16.25;;;;;;;11.11;52.26;100128.41;4991861;28;20386;-61
2020/12/08 05:59:23;;;;;;;41.58;18.63;;;;;;;10.97;52.04;100119.63;4992136;28;20242;-60
2020/12/08 06:01:49;;;;;;;37.17;18.65;;;;;;;10.94;53.28;100125.44;4992868;28;20621;-61
2020/12/08 06:04:14;;;;;;;32.27;15.47;;;;;;;10.94;52.89;100120.06;4992634;28;20109;-60
2020/12/08 06:06:47;;;;;;;34.27;15.07;;;;;;;10.94;52.13;100112.03;4985926;28;20043;-60
2020/12/08 06:09:21;;;;;;;38.20;16.67;;;;;;;11.01;52.57;100125.38;4990438;28;20738;-61
2020/12/08 06:11:47;;;;;;;31.05;15.77;;;;;;;11.12;52.11;100126.56;4986768;28;20092;-61
2020/12/08 06:14:13;;;;;;;32.47;15.97;;;;;;;11.25;51.16;100128.31;4977296;28;20477;-60
2020/12/08 06:16:39;;;;;;;32.22;15.43;;;;;;;11.28;51.88;100138.59;4989743;28;20065;-60
2020/12/08 06:19:04;;;;;;;27.77;13.37;;;;;;;11.34;51.47;100135.03;5011782;28;20041;-60
2020/12/08 06:21:30;;;;;;;33.33;15.50;;;;;;;11.43;51.41;100127.56;5012300;28;20034;-60
2020/12/08 06:23:58;;;;;;;33.57;14.67;;;;;;;11.32;52.33;100140.63;5011828;28;20515;-61
2020/12/08 06:26:25;;;;;;;36.53;16.67;;;;;;;11.32;52.67;100143.28;5012333;28;20129;-59
2020/12/08 06:28:52;;;;;;;35.75;17.10;;;;;;;11.19;53.26;100138.84;5012329;28;20038;-60
2020/12/08 06:31:18;;;;;;;33.00;15.77;;;;;;;10.95;54.17;100139.59;5011639;28;20065;-60
2020/12/08 06:33:54;;;;;;;32.75;15.63;;;;;;;11.12;54.03;100148.78;5012212;28;20279;-60
2020/12/08 06:36:24;;;;;;;35.60;14.75;;;;;;;11.11;53.75;100146.31;5012587;28;20034;-60
2020/12/08 06:39:01;;;;;;;31.00;16.50;;;;;;;11.27;52.86;100144.97;4994729;28;20461;-60
2020/12/08 06:41:37;;;;;;;33.08;16.42;;;;;;;11.25;52.94;100155.09;5012335;28;20088;-60
2020/12/08 06:44:19;;;;;;;75.47;42.33;;;;;;;11.05;54.12;100158.69;5011907;28;20037;-60
2020/12/08 06:46:55;;;;;;;72.15;40.58;;;;;;;11.21;54.09;100161.91;5012163;28;20034;-60
2020/12/08 06:49:21;;;;;;;42.00;19.65;;;;;;;11.66;52.53;100163.63;5012365;28;20049;-59
2020/12/08 06:51:54;;;;;;;38.33;15.43;;;;;;;11.47;52.75;100161.72;5012394;28;20034;-61
2020/12/08 06:54:20;;;;;;;34.90;16.45;;;;;;;11.29;53.80;100165.13;5011668;28;20038;-60
2020/12/08 06:56:45;;;;;;;30.87;17.67;;;;;;;11.31;54.19;100171.09;4994757;28;20156;-60
2020/12/08 06:59:21;;;;;;;33.40;16.33;;;;;;;11.30;54.08;100166.78;5011623;28;20065;-61
2020/12/08 07:01:51;;;;;;;36.33;17.20;;;;;;;11.31;54.39;100172.94;5012095;28;20038;-60
2020/12/08 07:04:17;;;;;;;30.45;16.10;;;;;;;11.50;53.75;100179.19;5011595;28;20284;-59
2020/12/08 07:06:43;;;;;;;31.23;14.63;;;;;;;11.31;54.39;100157.72;5012176;28;20042;-61
2020/12/08 07:09:09;;;;;;;28.27;16.55;;;;;;;11.51;54.07;100162.06;5013107;28;20038;-59
2020/12/08 07:11:35;;;;;;;31.30;15.27;;;;;;;11.66;53.80;100175.16;5015606;28;20371;-60
2020/12/08 07:14:04;;;;;;;33.40;16.63;;;;;;;11.68;53.29;100167.72;4991996;28;20038;-59
2020/12/08 07:16:30;;;;;;;29.83;16.00;;;;;;;11.73;53.59;100169.72;5004080;28;20042;-59
2020/12/08 07:18:56;;;;;;;30.27;16.80;;;;;;;12.24;51.48;100173.19;4995810;28;20041;-61
2020/12/08 07:21:22;;;;;;;;;;;;;;;12.31;50.99;100176.59;4994341;28;20070;-60
2020/12/08 07:23:51;;;;;;;29.27;15.57;;;;;;;11.85;53.00;100177.88;4978900;28;19964;-60
2020/12/08 07:26:22;;;;;;;29.65;15.80;;;;;;;11.71;53.91;100178.00;4997083;28;20049;-61
2020/12/08 07:28:47;;;;;;;28.58;15.75;;;;;;;11.73;54.63;100193.84;5005453;28;20037;-59
2020/12/08 07:31:21;;;;;;;29.50;15.57;;;;;;;11.82;53.82;100200.56;5014411;28;20038;-61
2020/12/08 07:33:47;;;;;;;38.22;16.83;;;;;;;11.90;54.24;100202.16;5010607;28;20097;-61
2020/12/08 07:36:33;;;;;;;33.50;16.67;;;;;;;11.97;52.46;100197.56;4995602;28;20521;-64
2020/12/08 07:39:03;;;;;;;31.70;15.18;;;;;;;11.89;53.89;100203.19;4980071;28;20072;-57
2020/12/08 07:41:30;;;;;;;35.97;15.13;;;;;;;11.48;55.09;100218.75;5008394;28;20038;-60
2020/12/08 07:43:58;;;;;;;33.55;16.60;;;;;;;11.17;57.43;100210.50;5014452;28;20072;-60
2020/12/08 07:46:27;;;;;;;30.60;15.40;;;;;;;11.35;57.00;100221.53;5015167;28;20046;-60
2020/12/08 07:49:05;;;;;;;32.15;16.67;;;;;;;11.61;56.89;100217.81;5004538;28;20084;-60
2020/12/08 07:51:31;;;;;;;31.85;14.55;;;;;;;11.82;55.21;100222.00;5002763;28;20045;-60
2020/12/08 07:53:59;;;;;;;33.55;16.20;;;;;;;11.78;54.71;100218.13;5014459;28;20079;-60
2020/12/08 07:56:30;;;;;;;29.88;15.90;;;;;;;11.92;54.82;100221.50;5010307;28;20049;-60
2020/12/08 07:58:56;;;;;;;37.53;16.30;;;;;;;12.04;54.13;100216.28;5012232;28;20089;-61
2020/12/08 08:01:22;;;;;;;30.40;17.05;;;;;;;12.09;54.34;100227.16;5012734;28;20034;-60
2020/12/08 08:03:48;;;;;;;33.08;17.23;;;;;;;12.05;52.80;100220.59;5012101;28;20044;-59
2020/12/08 08:06:21;;;;;;;32.05;16.73;;;;;;;12.40;53.02;100232.66;5013573;28;20038;-60
2020/12/08 08:08:48;;;;;;;31.27;16.42;;;;;;;12.21;53.18;100229.94;4996774;28;20045;-60
2020/12/08 08:11:15;;;;;;;31.65;15.90;;;;;;;12.40;52.77;100229.97;5013643;28;20105;-61
2020/12/08 08:13:41;;;;;;;;;;;;;;;12.39;52.60;100231.81;5014565;28;20134;-61
2020/12/08 08:16:11;;;;;;;31.17;16.10;;;;;;;12.39;52.98;100231.81;4996330;28;20360;-60
2020/12/08 08:18:38;;;;;;;36.65;18.45;;;;;;;12.46;52.81;100229.91;4996393;28;20103;-61
2020/12/08 08:21:03;;;;;;;32.95;17.85;;;;;;;12.44;52.78;100237.31;5012719;28;20057;-63
2020/12/08 08:23:30;;;;;;;35.50;17.38;;;;;;;12.44;52.90;100228.47;5014016;28;20050;-60
2020/12/08 08:25:56;;;;;;;33.63;17.33;;;;;;;12.30;53.82;100233.94;5014013;28;20046;-60
2020/12/08 08:28:22;;;;;;;31.80;17.88;;;;;;;12.09;55.13;100239.72;4995015;28;20038;-60
2020/12/08 08:30:47;;;;;;;35.70;17.40;;;;;;;12.41;53.69;100232.41;4996520;28;20488;-60
2020/12/08 08:33:13;;;;;;;38.77;17.53;;;;;;;12.47;53.77;100249.47;4995820;28;20041;-60
2020/12/08 08:35:38;;;;;;;38.00;18.13;;;;;;;12.28;53.75;100237.91;4996433;28;20030;-59
2020/12/08 08:38:04;;;;;;;31.10;16.90;;;;;;;12.32;54.10;100244.47;5013693;28;20092;-59
2020/12/08 08:40:31;;;;;;;32.67;18.47;;;;;;;11.98;55.67;100251.94;4996282;28;20073;-60
2020/12/08 08:42:57;;;;;;;34.58;18.58;;;;;;;12.43;54.14;100243.72;5013423;28;20046;-61
2020/12/08 08:45:22;;;;;;;37.17;17.27;;;;;;;12.68;52.97;100240.16;4995470;28;20038;-60
2020/12/08 08:47:48;;;;;;;35.27;18.67;;;;;;;13.16;51.28;100248.47;5013632;28;20137;-60
2020/12/08 08:50:14;;;;;;;32.53;17.13;;;;;;;13.15;50.47;100249.53;5012604;28;20113;-60
2020/12/08 08:52:39;;;;;;;36.85;18.33;;;;;;;12.74;52.03;100243.81;5013576;28;20100;-59
2020/12/08 08:55:08;;;;;;;35.60;17.90;;;;;;;12.70;52.99;100258.72;5012974;28;20045;-62
2020/12/08 08:57:33;;;;;;;35.28;17.58;;;;;;;12.46;53.63;100254.03;5013181;28;20069;-60
2020/12/08 08:59:59;;;;;;;31.77;17.37;;;;;;;12.86;52.73;100255.44;5013053;28;20480;-61
2020/12/08 09:02:24;;;;;;;32.97;18.47;;;;;;;12.82;52.77;100250.75;5012651;28;20038;-60
2020/12/08 09:04:50;;;;;;;36.03;18.63;;;;;;;12.99;51.90;100262.50;4995013;28;20366;-60
2020/12/08 09:07:15;;;;;;;36.30;18.07;;;;;;;13.05;51.96;100261.59;5012351;28;20166;-59
2020/12/08 09:09:41;;;;;;;34.13;19.10;;;;;;;12.94;52.54;100248.97;5013544;28;20055;-60
2020/12/08 09:12:06;;;;;;;36.63;19.83;;;;;;;12.87;52.61;100258.94;5012258;28;20112;-59
2020/12/08 09:14:32;;;;;;;33.67;18.97;;;;;;;12.91;53.05;100273.53;4982235;28;20041;-60
2020/12/08 09:16:58;;;;;;;37.50;20.30;;;;;;;12.91;52.83;100260.13;4993255;28;20104;-60
2020/12/08 09:19:23;;;;;;;35.07;18.10;;;;;;;12.82;53.09;100266.84;5007272;28;20093;-61
2020/12/08 09:21:53;;;;;;;37.50;18.88;;;;;;;12.85;52.97;100277.13;5012682;28;20041;-60
2020/12/08 09:24:19;;;;;;;33.55;18.77;;;;;;;12.51;55.69;100279.38;5012059;28;20042;-61
2020/12/08 09:26:45;;;;;;;34.25;18.33;;;;;;;12.52;56.18;100272.94;5012338;28;20037;-60
2020/12/08 09:29:11;;;;;;;35.13;19.67;;;;;;;12.70;55.27;100270.28;5011734;28;20041;-61
2020/12/08 09:31:36;;;;;;;36.15;19.27;;;;;;;12.69;54.75;100273.19;5012930;28;20301;-60
2020/12/08 09:34:03;;;;;;;32.80;18.80;;;;;;;12.56;55.42;100271.47;5012375;28;20045;-61
2020/12/08 09:36:28;;;;;;;36.65;20.80;;;;;;;12.77;55.80;100278.25;5004870;28;20064;-61
2020/12/08 09:38:54;;;;;;;41.95;20.65;;;;;;;13.22;53.17;100282.47;4995067;28;20112;-60
2020/12/08 09:41:19;;;;;;;34.77;20.40;;;;;;;12.84;54.25;100264.75;5011113;28;20045;-61
2020/12/08 09:43:45;;;;;;;39.00;20.23;;;;;;;12.65;55.04;100266.63;4994598;28;20533;-60
2020/12/08 09:46:11;;;;;;;38.33;20.80;;;;;;;12.70;55.72;100269.44;4994018;28;20401;-60
2020/12/08 09:48:36;;;;;;;36.63;18.83;;;;;;;12.93;54.52;100271.47;5012761;28;20478;-62
2020/12/08 09:51:02;;;;;;;34.93;20.80;;;;;;;12.91;54.87;100281.59;5012157;28;20393;-60
2020/12/08 09:53:28;;;;;;;34.38;20.05;;;;;;;12.97;54.40;100278.03;5012290;28;20133;-60
2020/12/08 09:55:53;;;;;;;38.90;19.37;;;;;;;13.09;54.00;100269.19;5012358;28;20529;-60
2020/12/08 09:58:19;;;;;;;34.10;18.27;;;;;;;13.13;54.57;100265.00;5012063;28;20041;-61
2020/12/08 10:00:44;;;;;;;43.57;19.83;;;;;;;12.90;56.30;100270.03;4995334;28;20038;-60
2020/12/08 10:03:10;;;;;;;35.73;20.40;;;;;;;12.73;57.02;100267.16;4994055;28;20034;-60
2020/12/08 10:05:36;;;;;;;39.50;19.65;;;;;;;13.09;55.86;100277.25;5009081;28;20091;-61
2020/12/08 10:08:01;;;;;;;41.72;20.90;;;;;;;13.00;55.51;100274.88;5012370;28;20121;-61
2020/12/08 10:10:27;;;;;;;35.10;18.93;;;;;;;13.18;54.83;100276.72;4994039;28;20129;-60
2020/12/08 10:12:52;;;;;;;38.57;19.17;;;;;;;13.19;55.17;100282.91;5010988;28;20038;-61
2020/12/08 10:15:18;;;;;;;38.93;21.03;;;;;;;13.29;56.03;100277.81;5011592;28;20180;-59
2020/12/08 10:17:44;;;;;;;30.38;16.35;;;;;;;13.29;56.02;100288.56;5011993;28;20050;-62
2020/12/08 10:20:10;;;;;;;37.10;20.55;;;;;;;13.33;55.22;100279.00;5007656;28;20042;-61
2020/12/08 10:22:35;;;;;;;38.38;21.00;;;;;;;13.15;56.42;100281.72;4992671;28;20307;-60
2020/12/08 10:25:02;;;;;;;38.53;21.27;;;;;;;13.31;57.25;100278.41;4992147;28;20030;-60
2020/12/08 10:27:27;;;;;;;44.15;23.40;;;;;;;13.41;56.90;100274.38;4991701;28;20321;-60
2020/12/08 10:29:53;;;;;;;40.20;21.20;;;;;;;13.47;55.81;100270.78;5011075;28;20117;-61
2020/12/08 10:32:18;;;;;;;37.10;20.43;;;;;;;13.44;56.45;100258.63;5012288;28;20113;-60
2020/12/08 10:34:44;;;;;;;38.43;20.27;;;;;;;13.78;55.57;100279.63;5012090;28;20386;-60
2020/12/08 10:37:09;;;;;;;35.40;19.97;;;;;;;13.87;54.89;100280.94;5011105;28;20119;-60
2020/12/08 10:39:35;;;;;;;33.90;19.30;;;;;;;13.94;54.81;100261.19;5012068;28;20474;-61
2020/12/08 10:42:01;;;;;;;34.63;19.47;;;;;;;14.42;52.63;100268.22;5011413;28;20038;-61
2020/12/08 10:44:26;;;;;;;36.30;21.23;;;;;;;15.15;50.20;100269.72;5013072;28;20052;-60
2020/12/08 10:46:52;;;;;;;34.43;19.60;;;;;;;15.34;49.42;100265.78;5015977;28;20040;-59
2020/12/08 10:49:19;;;;;;;37.15;19.38;;;;;;;15.50;49.32;100279.56;5015061;28;20042;-61
2020/12/08 10:51:45;;;;;;;30.48;18.23;;;;;;;15.64;49.88;100266.59;5016015;28;20034;-60
2020/12/08 10:54:10;;;;;;;35.93;20.53;;;;;;;16.78;47.23;100269.09;4997484;28;20036;-59
2020/12/08 10:56:36;;;;;;;34.07;17.83;;;;;;;16.76;47.44;100275.81;5015916;28;20042;-60
2020/12/08 10:59:01;;;;;;;30.47;17.60;;;;;;;16.83;47.23;100267.50;5014906;28;20041;-60
2020/12/08 11:01:27;;;;;;;31.13;18.23;;;;;;;16.69;47.06;100267.91;5015335;28;20553;-59
2020/12/08 11:03:54;;;;;;;39.50;20.27;;;;;;;16.86;45.77;100281.34;5015356;28;20088;-60
2020/12/08 11:06:30;;;;;;;36.35;19.38;;;;;;;16.83;44.99;100276.44;5015093;28;20035;-61
2020/12/08 11:08:56;;;;;;;30.40;18.13;;;;;;;16.66;46.77;100283.78;5003910;28;20080;-61